sensor_id;sensor_type;location;lat;lon;timestamp;P1;durP1;ratioP1;P2;durP2;ratioP2
14768;SDS011;7476;49.404;11.152;2023-09-19T00:00:19;2.80;;;2.40;;
14768;SDS011;7476;49.404;11.152;2023-09-19T00:02:46;5.53;;;2.30;;
14768;SDS011;7476;49.404;11.152;2023-09-19T00:05:19;5.10;;;2.50;;
14768;SDS011;7476;49.404;11.152;2023-09-19T00:07:49;2.50;;;2.30;;
14768;SDS011;7476;49.404;11.152;2023-09-19T00:10:18;7.97;;;2.40;;
14768;SDS011;7476;49.404;11.152;2023-09-19T00:12:46;6.30;;;2.60;;
14768;SDS011;7476;49.404;11.152;2023-09-19T00:15:13;3.93;;;2.93;;
14768;SDS011;7476;49.404;11.152;2023-09-19T00:17:42;4.00;;;2.40;;
14768;SDS011;7476;49.404;11.152;2023-09-19T00:20:11;4.07;;;2.40;;
14768;SDS011;7476;49.404;11.152;2023-09-19T00:22:41;4.80;;;2.27;;
14768;SDS011;7476;49.404;11.152;2023-09-19T00:25:08;3.40;;;2.50;;
14768;SDS011;7476;49.404;11.152;2023-09-19T00:27:36;2.50;;;2.30;;
14768;SDS011;7476;49.404;11.152;2023-09-19T00:30:07;9.70;;;2.63;;
14768;SDS011;7476;49.404;11.152;2023-09-19T00:32:39;3.33;;;2.70;;
14768;SDS011;7476;49.404;11.152;2023-09-19T00:35:06;3.00;;;2.53;;
14768;SDS011;7476;49.404;11.152;2023-09-19T00:37:35;3.73;;;2.33;;
14768;SDS011;7476;49.404;11.152;2023-09-19T00:40:02;3.90;;;2.37;;
14768;SDS011;7476;49.404;11.152;2023-09-19T00:42:30;4.30;;;2.53;;
14768;SDS011;7476;49.404;11.152;2023-09-19T00:44:58;3.47;;;2.10;;
14768;SDS011;7476;49.404;11.152;2023-09-19T00:47:28;3.23;;;2.10;;
14768;SDS011;7476;49.404;11.152;2023-09-19T00:49:55;3.90;;;2.10;;
14768;SDS011;7476;49.404;11.152;2023-09-19T00:52:23;3.40;;;2.50;;
14768;SDS011;7476;49.404;11.152;2023-09-19T00:54:51;4.87;;;2.67;;
14768;SDS011;7476;49.404;11.152;2023-09-19T00:57:18;3.37;;;2.07;;
14768;SDS011;7476;49.404;11.152;2023-09-19T00:59:45;4.07;;;2.33;;
14768;SDS011;7476;49.404;11.152;2023-09-19T01:02:15;3.63;;;2.27;;
14768;SDS011;7476;49.404;11.152;2023-09-19T01:04:42;3.57;;;2.60;;
14768;SDS011;7476;49.404;11.152;2023-09-19T01:07:10;3.47;;;2.20;;
14768;SDS011;7476;49.404;11.152;2023-09-19T01:09:37;3.43;;;2.13;;
14768;SDS011;7476;49.404;11.152;2023-09-19T01:12:06;4.23;;;2.30;;
14768;SDS011;7476;49.404;11.152;2023-09-19T01:14:37;2.47;;;1.93;;
14768;SDS011;7476;49.404;11.152;2023-09-19T01:17:09;3.63;;;2.23;;
14768;SDS011;7476;49.404;11.152;2023-09-19T01:22:41;4.10;;;2.20;;
14768;SDS011;7476;49.404;11.152;2023-09-19T01:28:24;4.77;;;2.40;;
14768;SDS011;7476;49.404;11.152;2023-09-19T01:31:02;3.10;;;2.07;;
14768;SDS011;7476;49.404;11.152;2023-09-19T01:36:24;2.67;;;1.97;;
14768;SDS011;7476;49.404;11.152;2023-09-19T01:38:51;2.00;;;1.80;;
14768;SDS011;7476;49.404;11.152;2023-09-19T01:41:21;5.50;;;2.17;;
14768;SDS011;7476;49.404;11.152;2023-09-19T01:43:56;4.03;;;2.40;;
14768;SDS011;7476;49.404;11.152;2023-09-19T01:46:28;3.00;;;2.30;;
14768;SDS011;7476;49.404;11.152;2023-09-19T01:49:01;4.93;;;2.37;;
14768;SDS011;7476;49.404;11.152;2023-09-19T01:51:40;2.70;;;2.03;;
14768;SDS011;7476;49.404;11.152;2023-09-19T01:54:18;3.93;;;2.20;;
14768;SDS011;7476;49.404;11.152;2023-09-19T01:56:53;2.53;;;1.80;;
14768;SDS011;7476;49.404;11.152;2023-09-19T01:59:31;2.83;;;1.77;;
14768;SDS011;7476;49.404;11.152;2023-09-19T02:02:06;4.27;;;1.90;;
14768;SDS011;7476;49.404;11.152;2023-09-19T02:04:34;3.43;;;2.30;;
14768;SDS011;7476;49.404;11.152;2023-09-19T02:07:01;2.43;;;2.13;;
14768;SDS011;7476;49.404;11.152;2023-09-19T02:09:30;3.43;;;2.10;;
14768;SDS011;7476;49.404;11.152;2023-09-19T02:11:58;4.43;;;2.13;;
14768;SDS011;7476;49.404;11.152;2023-09-19T02:14:25;2.97;;;1.90;;
14768;SDS011;7476;49.404;11.152;2023-09-19T02:16:52;5.77;;;2.17;;
14768;SDS011;7476;49.404;11.152;2023-09-19T02:19:20;2.97;;;1.90;;
14768;SDS011;7476;49.404;11.152;2023-09-19T02:21:47;3.47;;;2.07;;
14768;SDS011;7476;49.404;11.152;2023-09-19T02:24:14;3.87;;;2.17;;
14768;SDS011;7476;49.404;11.152;2023-09-19T02:26:41;4.73;;;2.20;;
14768;SDS011;7476;49.404;11.152;2023-09-19T02:29:08;5.07;;;2.27;;
14768;SDS011;7476;49.404;11.152;2023-09-19T02:31:37;5.53;;;2.00;;
14768;SDS011;7476;49.404;11.152;2023-09-19T02:34:04;2.07;;;1.80;;
14768;SDS011;7476;49.404;11.152;2023-09-19T02:36:33;2.83;;;2.10;;
14768;SDS011;7476;49.404;11.152;2023-09-19T02:38:59;5.73;;;2.10;;
14768;SDS011;7476;49.404;11.152;2023-09-19T02:41:26;5.07;;;2.37;;
14768;SDS011;7476;49.404;11.152;2023-09-19T02:43:54;6.90;;;2.20;;
14768;SDS011;7476;49.404;11.152;2023-09-19T02:46:21;2.70;;;2.00;;
14768;SDS011;7476;49.404;11.152;2023-09-19T02:48:48;2.13;;;1.70;;
14768;SDS011;7476;49.404;11.152;2023-09-19T02:51:15;3.83;;;1.80;;
14768;SDS011;7476;49.404;11.152;2023-09-19T02:53:43;4.67;;;1.90;;
14768;SDS011;7476;49.404;11.152;2023-09-19T02:56:12;3.53;;;1.90;;
14768;SDS011;7476;49.404;11.152;2023-09-19T02:58:40;5.33;;;2.27;;
14768;SDS011;7476;49.404;11.152;2023-09-19T03:01:08;4.80;;;2.00;;
14768;SDS011;7476;49.404;11.152;2023-09-19T03:03:36;4.53;;;2.00;;
14768;SDS011;7476;49.404;11.152;2023-09-19T03:06:04;8.00;;;5.07;;
14768;SDS011;7476;49.404;11.152;2023-09-19T03:08:33;2.27;;;1.97;;
14768;SDS011;7476;49.404;11.152;2023-09-19T03:11:02;2.57;;;1.93;;
14768;SDS011;7476;49.404;11.152;2023-09-19T03:13:30;2.23;;;1.80;;
14768;SDS011;7476;49.404;11.152;2023-09-19T03:15:57;3.23;;;1.53;;
14768;SDS011;7476;49.404;11.152;2023-09-19T03:18:24;2.73;;;1.90;;
14768;SDS011;7476;49.404;11.152;2023-09-19T03:20:54;5.20;;;2.00;;
14768;SDS011;7476;49.404;11.152;2023-09-19T03:23:21;2.23;;;2.00;;
14768;SDS011;7476;49.404;11.152;2023-09-19T03:25:48;3.07;;;1.93;;
14768;SDS011;7476;49.404;11.152;2023-09-19T03:28:16;3.67;;;2.00;;
14768;SDS011;7476;49.404;11.152;2023-09-19T03:30:43;4.93;;;1.93;;
14768;SDS011;7476;49.404;11.152;2023-09-19T03:33:11;3.50;;;2.73;;
14768;SDS011;7476;49.404;11.152;2023-09-19T03:35:38;3.80;;;1.93;;
14768;SDS011;7476;49.404;11.152;2023-09-19T03:38:05;3.20;;;2.03;;
14768;SDS011;7476;49.404;11.152;2023-09-19T03:40:32;3.60;;;1.90;;
14768;SDS011;7476;49.404;11.152;2023-09-19T03:43:00;4.20;;;1.97;;
14768;SDS011;7476;49.404;11.152;2023-09-19T03:45:28;3.73;;;2.07;;
14768;SDS011;7476;49.404;11.152;2023-09-19T03:47:55;5.03;;;1.80;;
14768;SDS011;7476;49.404;11.152;2023-09-19T03:50:22;2.67;;;1.90;;
14768;SDS011;7476;49.404;11.152;2023-09-19T03:52:49;4.13;;;2.10;;
14768;SDS011;7476;49.404;11.152;2023-09-19T03:55:15;4.63;;;2.50;;
14768;SDS011;7476;49.404;11.152;2023-09-19T03:57:42;4.97;;;2.40;;
14768;SDS011;7476;49.404;11.152;2023-09-19T04:00:14;7.20;;;2.60;;
14768;SDS011;7476;49.404;11.152;2023-09-19T04:02:47;5.30;;;1.90;;
14768;SDS011;7476;49.404;11.152;2023-09-19T04:05:14;3.43;;;1.80;;
14768;SDS011;7476;49.404;11.152;2023-09-19T04:07:41;2.43;;;1.97;;
14768;SDS011;7476;49.404;11.152;2023-09-19T04:10:08;2.73;;;1.87;;
14768;SDS011;7476;49.404;11.152;2023-09-19T04:12:36;4.03;;;2.20;;
14768;SDS011;7476;49.404;11.152;2023-09-19T04:15:03;7.07;;;2.20;;
14768;SDS011;7476;49.404;11.152;2023-09-19T04:17:31;3.13;;;2.03;;
14768;SDS011;7476;49.404;11.152;2023-09-19T04:19:59;3.73;;;2.17;;
14768;SDS011;7476;49.404;11.152;2023-09-19T04:22:26;2.63;;;2.20;;
14768;SDS011;7476;49.404;11.152;2023-09-19T04:24:53;3.50;;;1.83;;
14768;SDS011;7476;49.404;11.152;2023-09-19T04:27:19;3.53;;;2.13;;
14768;SDS011;7476;49.404;11.152;2023-09-19T04:29:46;3.60;;;2.00;;
14768;SDS011;7476;49.404;11.152;2023-09-19T04:32:13;3.43;;;2.10;;
14768;SDS011;7476;49.404;11.152;2023-09-19T04:34:40;3.80;;;2.10;;
14768;SDS011;7476;49.404;11.152;2023-09-19T04:37:09;4.23;;;2.13;;
14768;SDS011;7476;49.404;11.152;2023-09-19T04:39:36;5.60;;;2.03;;
14768;SDS011;7476;49.404;11.152;2023-09-19T04:42:03;3.23;;;1.70;;
14768;SDS011;7476;49.404;11.152;2023-09-19T04:44:31;2.53;;;2.00;;
14768;SDS011;7476;49.404;11.152;2023-09-19T04:46:57;2.87;;;2.20;;
14768;SDS011;7476;49.404;11.152;2023-09-19T04:49:24;3.33;;;2.03;;
14768;SDS011;7476;49.404;11.152;2023-09-19T04:51:51;3.97;;;2.30;;
14768;SDS011;7476;49.404;11.152;2023-09-19T04:54:20;2.73;;;2.17;;
14768;SDS011;7476;49.404;11.152;2023-09-19T04:56:47;3.37;;;2.30;;
14768;SDS011;7476;49.404;11.152;2023-09-19T04:59:14;5.70;;;2.30;;
14768;SDS011;7476;49.404;11.152;2023-09-19T05:01:40;5.20;;;2.00;;
14768;SDS011;7476;49.404;11.152;2023-09-19T05:04:06;2.97;;;2.17;;
14768;SDS011;7476;49.404;11.152;2023-09-19T05:06:33;2.30;;;2.07;;
14768;SDS011;7476;49.404;11.152;2023-09-19T05:09:00;3.67;;;2.10;;
14768;SDS011;7476;49.404;11.152;2023-09-19T05:11:31;4.37;;;2.30;;
14768;SDS011;7476;49.404;11.152;2023-09-19T05:13:58;3.00;;;2.17;;
14768;SDS011;7476;49.404;11.152;2023-09-19T05:16:28;3.10;;;2.20;;
14768;SDS011;7476;49.404;11.152;2023-09-19T05:18:56;4.33;;;1.97;;
14768;SDS011;7476;49.404;11.152;2023-09-19T05:21:23;4.33;;;2.00;;
14768;SDS011;7476;49.404;11.152;2023-09-19T05:23:51;5.10;;;2.20;;
14768;SDS011;7476;49.404;11.152;2023-09-19T05:26:17;3.50;;;2.20;;
14768;SDS011;7476;49.404;11.152;2023-09-19T05:28:46;3.20;;;2.17;;
14768;SDS011;7476;49.404;11.152;2023-09-19T05:31:13;5.00;;;1.90;;
14768;SDS011;7476;49.404;11.152;2023-09-19T05:33:40;5.47;;;2.33;;
14768;SDS011;7476;49.404;11.152;2023-09-19T05:36:07;3.93;;;2.10;;
14768;SDS011;7476;49.404;11.152;2023-09-19T05:38:35;2.40;;;2.20;;
14768;SDS011;7476;49.404;11.152;2023-09-19T05:41:05;2.20;;;2.00;;
14768;SDS011;7476;49.404;11.152;2023-09-19T05:43:33;2.40;;;2.03;;
14768;SDS011;7476;49.404;11.152;2023-09-19T05:46:03;4.33;;;2.10;;
14768;SDS011;7476;49.404;11.152;2023-09-19T05:48:30;2.83;;;2.07;;
14768;SDS011;7476;49.404;11.152;2023-09-19T05:50:57;2.83;;;1.83;;
14768;SDS011;7476;49.404;11.152;2023-09-19T05:53:25;2.43;;;2.20;;
14768;SDS011;7476;49.404;11.152;2023-09-19T05:55:53;3.23;;;2.03;;
14768;SDS011;7476;49.404;11.152;2023-09-19T05:58:20;3.57;;;2.00;;
14768;SDS011;7476;49.404;11.152;2023-09-19T06:00:47;2.43;;;2.10;;
14768;SDS011;7476;49.404;11.152;2023-09-19T06:03:15;4.27;;;2.13;;
14768;SDS011;7476;49.404;11.152;2023-09-19T06:05:43;2.20;;;1.87;;
14768;SDS011;7476;49.404;11.152;2023-09-19T06:08:11;3.20;;;1.93;;
14768;SDS011;7476;49.404;11.152;2023-09-19T06:10:37;2.47;;;2.00;;
14768;SDS011;7476;49.404;11.152;2023-09-19T06:13:04;5.40;;;1.80;;
14768;SDS011;7476;49.404;11.152;2023-09-19T06:15:34;3.17;;;1.90;;
14768;SDS011;7476;49.404;11.152;2023-09-19T06:18:01;3.37;;;2.00;;
14768;SDS011;7476;49.404;11.152;2023-09-19T06:20:31;2.17;;;1.80;;
14768;SDS011;7476;49.404;11.152;2023-09-19T06:22:58;3.97;;;1.90;;
14768;SDS011;7476;49.404;11.152;2023-09-19T06:25:26;2.37;;;2.17;;
14768;SDS011;7476;49.404;11.152;2023-09-19T06:27:53;3.87;;;2.20;;
14768;SDS011;7476;49.404;11.152;2023-09-19T06:30:21;3.80;;;1.80;;
14768;SDS011;7476;49.404;11.152;2023-09-19T06:32:49;3.77;;;1.87;;
14768;SDS011;7476;49.404;11.152;2023-09-19T06:35:21;2.30;;;1.70;;
14768;SDS011;7476;49.404;11.152;2023-09-19T06:37:49;1.87;;;1.50;;
14768;SDS011;7476;49.404;11.152;2023-09-19T06:40:16;3.30;;;2.13;;
14768;SDS011;7476;49.404;11.152;2023-09-19T06:42:43;3.23;;;1.90;;
14768;SDS011;7476;49.404;11.152;2023-09-19T06:45:11;3.20;;;1.80;;
14768;SDS011;7476;49.404;11.152;2023-09-19T06:47:42;2.07;;;1.70;;
14768;SDS011;7476;49.404;11.152;2023-09-19T06:50:10;1.70;;;1.40;;
14768;SDS011;7476;49.404;11.152;2023-09-19T06:52:38;2.53;;;1.50;;
14768;SDS011;7476;49.404;11.152;2023-09-19T06:55:07;3.57;;;1.50;;
14768;SDS011;7476;49.404;11.152;2023-09-19T06:57:34;1.93;;;1.40;;
14768;SDS011;7476;49.404;11.152;2023-09-19T07:00:01;1.93;;;1.53;;
14768;SDS011;7476;49.404;11.152;2023-09-19T07:02:33;2.03;;;1.43;;
14768;SDS011;7476;49.404;11.152;2023-09-19T07:05:00;2.80;;;1.50;;
14768;SDS011;7476;49.404;11.152;2023-09-19T07:07:27;1.87;;;1.63;;
14768;SDS011;7476;49.404;11.152;2023-09-19T07:09:54;3.40;;;1.70;;
14768;SDS011;7476;49.404;11.152;2023-09-19T07:12:23;1.70;;;1.60;;
14768;SDS011;7476;49.404;11.152;2023-09-19T07:14:49;3.07;;;1.50;;
14768;SDS011;7476;49.404;11.152;2023-09-19T07:17:16;2.90;;;1.50;;
14768;SDS011;7476;49.404;11.152;2023-09-19T07:19:44;4.73;;;1.80;;
14768;SDS011;7476;49.404;11.152;2023-09-19T07:22:10;3.20;;;1.50;;
14768;SDS011;7476;49.404;11.152;2023-09-19T07:24:38;2.87;;;1.70;;
14768;SDS011;7476;49.404;11.152;2023-09-19T07:27:04;2.07;;;1.50;;
14768;SDS011;7476;49.404;11.152;2023-09-19T07:29:33;2.73;;;1.50;;
14768;SDS011;7476;49.404;11.152;2023-09-19T07:31:59;3.13;;;1.70;;
14768;SDS011;7476;49.404;11.152;2023-09-19T07:34:26;3.97;;;1.70;;
14768;SDS011;7476;49.404;11.152;2023-09-19T07:36:53;2.07;;;1.50;;
14768;SDS011;7476;49.404;11.152;2023-09-19T07:39:19;3.30;;;1.87;;
14768;SDS011;7476;49.404;11.152;2023-09-19T07:41:46;2.93;;;2.00;;
14768;SDS011;7476;49.404;11.152;2023-09-19T07:44:13;4.47;;;1.67;;
14768;SDS011;7476;49.404;11.152;2023-09-19T07:46:41;2.37;;;1.77;;
14768;SDS011;7476;49.404;11.152;2023-09-19T07:49:09;4.17;;;2.07;;
14768;SDS011;7476;49.404;11.152;2023-09-19T07:51:36;5.90;;;1.77;;
14768;SDS011;7476;49.404;11.152;2023-09-19T07:54:03;4.17;;;1.93;;
14768;SDS011;7476;49.404;11.152;2023-09-19T07:56:31;2.63;;;1.90;;
14768;SDS011;7476;49.404;11.152;2023-09-19T07:58:59;2.63;;;1.70;;
14768;SDS011;7476;49.404;11.152;2023-09-19T08:01:25;3.87;;;1.90;;
14768;SDS011;7476;49.404;11.152;2023-09-19T08:03:54;2.53;;;1.87;;
14768;SDS011;7476;49.404;11.152;2023-09-19T08:06:20;4.10;;;1.97;;
14768;SDS011;7476;49.404;11.152;2023-09-19T08:08:50;3.43;;;2.10;;
14768;SDS011;7476;49.404;11.152;2023-09-19T08:11:18;3.17;;;1.80;;
14768;SDS011;7476;49.404;11.152;2023-09-19T08:13:46;2.40;;;2.00;;
14768;SDS011;7476;49.404;11.152;2023-09-19T08:16:13;3.67;;;2.13;;
14768;SDS011;7476;49.404;11.152;2023-09-19T08:18:41;3.20;;;2.10;;
14768;SDS011;7476;49.404;11.152;2023-09-19T08:21:11;3.27;;;1.90;;
14768;SDS011;7476;49.404;11.152;2023-09-19T08:23:40;3.90;;;1.80;;
14768;SDS011;7476;49.404;11.152;2023-09-19T08:26:08;2.50;;;2.10;;
14768;SDS011;7476;49.404;11.152;2023-09-19T08:28:35;3.23;;;1.70;;
14768;SDS011;7476;49.404;11.152;2023-09-19T08:31:02;4.63;;;1.83;;
14768;SDS011;7476;49.404;11.152;2023-09-19T08:33:31;3.63;;;1.70;;
14768;SDS011;7476;49.404;11.152;2023-09-19T08:35:58;2.70;;;1.80;;
14768;SDS011;7476;49.404;11.152;2023-09-19T08:38:26;1.97;;;1.60;;
14768;SDS011;7476;49.404;11.152;2023-09-19T08:40:54;2.10;;;1.80;;
14768;SDS011;7476;49.404;11.152;2023-09-19T08:43:23;5.80;;;1.90;;
14768;SDS011;7476;49.404;11.152;2023-09-19T08:45:50;4.40;;;1.90;;
14768;SDS011;7476;49.404;11.152;2023-09-19T08:48:22;2.87;;;1.80;;
14768;SDS011;7476;49.404;11.152;2023-09-19T08:50:51;2.93;;;2.00;;
14768;SDS011;7476;49.404;11.152;2023-09-19T08:53:27;1.70;;;1.60;;
14768;SDS011;7476;49.404;11.152;2023-09-19T08:56:03;4.33;;;1.50;;
14768;SDS011;7476;49.404;11.152;2023-09-19T08:58:38;2.03;;;1.60;;
14768;SDS011;7476;49.404;11.152;2023-09-19T09:01:13;3.17;;;1.87;;
14768;SDS011;7476;49.404;11.152;2023-09-19T09:03:42;5.10;;;1.70;;
14768;SDS011;7476;49.404;11.152;2023-09-19T09:06:13;2.63;;;1.90;;
14768;SDS011;7476;49.404;11.152;2023-09-19T09:08:43;2.90;;;1.50;;
14768;SDS011;7476;49.404;11.152;2023-09-19T09:11:10;3.80;;;1.77;;
14768;SDS011;7476;49.404;11.152;2023-09-19T09:13:37;4.70;;;2.00;;
14768;SDS011;7476;49.404;11.152;2023-09-19T09:16:06;2.80;;;1.70;;
14768;SDS011;7476;49.404;11.152;2023-09-19T09:18:33;3.57;;;1.80;;
14768;SDS011;7476;49.404;11.152;2023-09-19T09:21:00;2.10;;;1.60;;
14768;SDS011;7476;49.404;11.152;2023-09-19T09:23:27;2.40;;;1.67;;
14768;SDS011;7476;49.404;11.152;2023-09-19T09:25:56;3.43;;;1.50;;
14768;SDS011;7476;49.404;11.152;2023-09-19T09:28:25;2.53;;;1.77;;
14768;SDS011;7476;49.404;11.152;2023-09-19T09:30:53;3.30;;;1.70;;
14768;SDS011;7476;49.404;11.152;2023-09-19T09:33:21;2.67;;;1.90;;
14768;SDS011;7476;49.404;11.152;2023-09-19T09:35:48;2.93;;;1.90;;
14768;SDS011;7476;49.404;11.152;2023-09-19T09:38:22;2.77;;;1.50;;
14768;SDS011;7476;49.404;11.152;2023-09-19T09:40:53;2.90;;;1.47;;
14768;SDS011;7476;49.404;11.152;2023-09-19T09:43:27;3.50;;;1.70;;
14768;SDS011;7476;49.404;11.152;2023-09-19T09:46:06;1.50;;;1.37;;
14768;SDS011;7476;49.404;11.152;2023-09-19T09:48:58;2.07;;;1.43;;
14768;SDS011;7476;49.404;11.152;2023-09-19T09:51:43;2.10;;;1.40;;
14768;SDS011;7476;49.404;11.152;2023-09-19T09:54:14;3.13;;;1.60;;
14768;SDS011;7476;49.404;11.152;2023-09-19T09:56:55;2.27;;;1.53;;
14768;SDS011;7476;49.404;11.152;2023-09-19T09:59:45;2.97;;;1.70;;
14768;SDS011;7476;49.404;11.152;2023-09-19T10:02:13;2.63;;;1.50;;
14768;SDS011;7476;49.404;11.152;2023-09-19T10:04:46;2.37;;;1.50;;
14768;SDS011;7476;49.404;11.152;2023-09-19T10:07:24;3.07;;;1.60;;
14768;SDS011;7476;49.404;11.152;2023-09-19T10:09:56;3.43;;;1.60;;
14768;SDS011;7476;49.404;11.152;2023-09-19T10:12:31;1.83;;;1.40;;
14768;SDS011;7476;49.404;11.152;2023-09-19T10:15:01;2.20;;;1.57;;
14768;SDS011;7476;49.404;11.152;2023-09-19T10:17:31;2.30;;;1.57;;
14768;SDS011;7476;49.404;11.152;2023-09-19T10:20:02;3.83;;;1.43;;
14768;SDS011;7476;49.404;11.152;2023-09-19T10:22:42;3.33;;;1.83;;
14768;SDS011;7476;49.404;11.152;2023-09-19T10:25:21;2.60;;;1.50;;
14768;SDS011;7476;49.404;11.152;2023-09-19T10:27:51;3.37;;;1.60;;
14768;SDS011;7476;49.404;11.152;2023-09-19T10:30:22;3.60;;;1.80;;
14768;SDS011;7476;49.404;11.152;2023-09-19T10:32:53;2.87;;;1.57;;
14768;SDS011;7476;49.404;11.152;2023-09-19T10:35:24;2.17;;;1.53;;
14768;SDS011;7476;49.404;11.152;2023-09-19T10:37:52;1.70;;;1.50;;
14768;SDS011;7476;49.404;11.152;2023-09-19T10:40:22;3.37;;;1.80;;
14768;SDS011;7476;49.404;11.152;2023-09-19T10:42:55;2.80;;;1.70;;
14768;SDS011;7476;49.404;11.152;2023-09-19T10:45:28;3.60;;;2.03;;
14768;SDS011;7476;49.404;11.152;2023-09-19T10:47:56;5.03;;;2.00;;
14768;SDS011;7476;49.404;11.152;2023-09-19T10:50:23;2.10;;;1.80;;
14768;SDS011;7476;49.404;11.152;2023-09-19T10:52:51;2.33;;;1.93;;
14768;SDS011;7476;49.404;11.152;2023-09-19T10:55:25;3.27;;;1.77;;
14768;SDS011;7476;49.404;11.152;2023-09-19T10:57:55;2.97;;;1.80;;
14768;SDS011;7476;49.404;11.152;2023-09-19T11:00:22;3.00;;;1.90;;
14768;SDS011;7476;49.404;11.152;2023-09-19T11:05:59;3.90;;;1.80;;
14768;SDS011;7476;49.404;11.152;2023-09-19T11:08:30;2.63;;;1.90;;
14768;SDS011;7476;49.404;11.152;2023-09-19T11:10:58;3.53;;;1.60;;
14768;SDS011;7476;49.404;11.152;2023-09-19T11:13:28;3.00;;;1.77;;
14768;SDS011;7476;49.404;11.152;2023-09-19T11:16:03;3.00;;;1.70;;
14768;SDS011;7476;49.404;11.152;2023-09-19T11:21:38;2.57;;;1.87;;
14768;SDS011;7476;49.404;11.152;2023-09-19T11:24:27;4.77;;;1.97;;
14768;SDS011;7476;49.404;11.152;2023-09-19T11:27:08;3.47;;;1.73;;
14768;SDS011;7476;49.404;11.152;2023-09-19T11:29:37;2.57;;;1.70;;
14768;SDS011;7476;49.404;11.152;2023-09-19T11:32:04;2.73;;;1.80;;
14768;SDS011;7476;49.404;11.152;2023-09-19T11:34:39;3.30;;;1.50;;
14768;SDS011;7476;49.404;11.152;2023-09-19T11:40:10;3.50;;;1.53;;
14768;SDS011;7476;49.404;11.152;2023-09-19T11:42:41;2.33;;;1.40;;
14768;SDS011;7476;49.404;11.152;2023-09-19T11:48:11;2.43;;;1.20;;
14768;SDS011;7476;49.404;11.152;2023-09-19T11:50:42;3.63;;;1.47;;
14768;SDS011;7476;49.404;11.152;2023-09-19T11:53:09;2.33;;;1.33;;
14768;SDS011;7476;49.404;11.152;2023-09-19T11:55:36;2.77;;;1.23;;
14768;SDS011;7476;49.404;11.152;2023-09-19T11:58:03;3.40;;;1.50;;
14768;SDS011;7476;49.404;11.152;2023-09-19T12:00:30;2.27;;;1.40;;
14768;SDS011;7476;49.404;11.152;2023-09-19T12:02:58;3.50;;;1.70;;
14768;SDS011;7476;49.404;11.152;2023-09-19T12:05:33;2.53;;;1.67;;
14768;SDS011;7476;49.404;11.152;2023-09-19T12:08:01;3.40;;;1.30;;
14768;SDS011;7476;49.404;11.152;2023-09-19T12:10:29;3.00;;;1.30;;
14768;SDS011;7476;49.404;11.152;2023-09-19T12:12:56;2.37;;;1.60;;
14768;SDS011;7476;49.404;11.152;2023-09-19T12:15:24;2.13;;;1.37;;
14768;SDS011;7476;49.404;11.152;2023-09-19T12:17:53;3.77;;;1.80;;
14768;SDS011;7476;49.404;11.152;2023-09-19T12:20:20;3.00;;;1.27;;
14768;SDS011;7476;49.404;11.152;2023-09-19T12:22:48;1.90;;;1.47;;
14768;SDS011;7476;49.404;11.152;2023-09-19T12:25:16;2.73;;;1.60;;
14768;SDS011;7476;49.404;11.152;2023-09-19T12:27:45;2.77;;;1.40;;
14768;SDS011;7476;49.404;11.152;2023-09-19T12:30:14;3.73;;;1.60;;
14768;SDS011;7476;49.404;11.152;2023-09-19T12:32:43;2.67;;;1.30;;
14768;SDS011;7476;49.404;11.152;2023-09-19T12:35:10;2.10;;;1.53;;
14768;SDS011;7476;49.404;11.152;2023-09-19T12:37:54;3.27;;;1.43;;
14768;SDS011;7476;49.404;11.152;2023-09-19T12:40:23;1.87;;;1.50;;
14768;SDS011;7476;49.404;11.152;2023-09-19T12:42:52;2.60;;;1.67;;
14768;SDS011;7476;49.404;11.152;2023-09-19T12:45:20;3.67;;;1.40;;
14768;SDS011;7476;49.404;11.152;2023-09-19T12:50:59;1.83;;;1.40;;
14768;SDS011;7476;49.404;11.152;2023-09-19T12:53:31;2.73;;;1.57;;
14768;SDS011;7476;49.404;11.152;2023-09-19T12:56:00;2.83;;;1.70;;
14768;SDS011;7476;49.404;11.152;2023-09-19T12:58:27;2.67;;;1.40;;
14768;SDS011;7476;49.404;11.152;2023-09-19T13:00:56;3.03;;;1.93;;
14768;SDS011;7476;49.404;11.152;2023-09-19T13:03:25;2.37;;;1.43;;
14768;SDS011;7476;49.404;11.152;2023-09-19T13:05:53;3.87;;;1.67;;
14768;SDS011;7476;49.404;11.152;2023-09-19T13:08:26;2.67;;;1.67;;
14768;SDS011;7476;49.404;11.152;2023-09-19T13:11:09;2.80;;;1.70;;
14768;SDS011;7476;49.404;11.152;2023-09-19T13:13:38;3.00;;;1.40;;
14768;SDS011;7476;49.404;11.152;2023-09-19T13:16:06;3.03;;;1.70;;
14768;SDS011;7476;49.404;11.152;2023-09-19T13:18:47;3.30;;;1.70;;
14768;SDS011;7476;49.404;11.152;2023-09-19T13:21:17;3.00;;;1.90;;
14768;SDS011;7476;49.404;11.152;2023-09-19T13:23:54;2.33;;;1.50;;
14768;SDS011;7476;49.404;11.152;2023-09-19T13:26:25;2.40;;;1.43;;
14768;SDS011;7476;49.404;11.152;2023-09-19T13:28:53;2.90;;;1.50;;
14768;SDS011;7476;49.404;11.152;2023-09-19T13:31:19;2.23;;;1.47;;
14768;SDS011;7476;49.404;11.152;2023-09-19T13:33:47;2.77;;;1.70;;
14768;SDS011;7476;49.404;11.152;2023-09-19T13:36:15;3.93;;;1.80;;
14768;SDS011;7476;49.404;11.152;2023-09-19T13:38:43;3.37;;;1.63;;
14768;SDS011;7476;49.404;11.152;2023-09-19T13:41:11;2.70;;;1.47;;
14768;SDS011;7476;49.404;11.152;2023-09-19T13:43:40;2.20;;;1.40;;
14768;SDS011;7476;49.404;11.152;2023-09-19T13:46:07;2.50;;;1.40;;
14768;SDS011;7476;49.404;11.152;2023-09-19T13:48:37;4.50;;;1.70;;
14768;SDS011;7476;49.404;11.152;2023-09-19T13:51:03;2.33;;;1.60;;
14768;SDS011;7476;49.404;11.152;2023-09-19T13:53:30;3.03;;;1.60;;
14768;SDS011;7476;49.404;11.152;2023-09-19T13:55:57;3.10;;;1.70;;
14768;SDS011;7476;49.404;11.152;2023-09-19T13:58:23;2.73;;;1.70;;
14768;SDS011;7476;49.404;11.152;2023-09-19T14:00:53;1.80;;;1.37;;
14768;SDS011;7476;49.404;11.152;2023-09-19T14:03:23;3.70;;;1.60;;
14768;SDS011;7476;49.404;11.152;2023-09-19T14:05:50;4.60;;;1.50;;
14768;SDS011;7476;49.404;11.152;2023-09-19T14:08:17;2.50;;;1.70;;
14768;SDS011;7476;49.404;11.152;2023-09-19T14:10:44;3.07;;;1.47;;
14768;SDS011;7476;49.404;11.152;2023-09-19T14:13:10;3.07;;;1.30;;
14768;SDS011;7476;49.404;11.152;2023-09-19T14:15:40;2.63;;;1.40;;
14768;SDS011;7476;49.404;11.152;2023-09-19T14:18:08;2.13;;;1.63;;
14768;SDS011;7476;49.404;11.152;2023-09-19T14:20:37;3.57;;;1.57;;
14768;SDS011;7476;49.404;11.152;2023-09-19T14:23:05;2.70;;;1.47;;
14768;SDS011;7476;49.404;11.152;2023-09-19T14:25:33;1.90;;;1.37;;
14768;SDS011;7476;49.404;11.152;2023-09-19T14:28:00;1.43;;;1.33;;
14768;SDS011;7476;49.404;11.152;2023-09-19T14:30:27;2.20;;;1.80;;
14768;SDS011;7476;49.404;11.152;2023-09-19T14:32:54;3.43;;;1.70;;
14768;SDS011;7476;49.404;11.152;2023-09-19T14:35:22;2.50;;;1.40;;
14768;SDS011;7476;49.404;11.152;2023-09-19T14:37:48;2.33;;;1.40;;
14768;SDS011;7476;49.404;11.152;2023-09-19T14:40:15;3.33;;;1.50;;
14768;SDS011;7476;49.404;11.152;2023-09-19T14:42:42;1.97;;;1.37;;
14768;SDS011;7476;49.404;11.152;2023-09-19T14:45:10;1.90;;;1.17;;
14768;SDS011;7476;49.404;11.152;2023-09-19T14:47:39;1.73;;;1.40;;
14768;SDS011;7476;49.404;11.152;2023-09-19T14:50:07;1.90;;;1.30;;
14768;SDS011;7476;49.404;11.152;2023-09-19T14:52:35;2.63;;;1.60;;
14768;SDS011;7476;49.404;11.152;2023-09-19T14:55:02;1.60;;;1.47;;
14768;SDS011;7476;49.404;11.152;2023-09-19T14:57:31;1.63;;;1.40;;
14768;SDS011;7476;49.404;11.152;2023-09-19T14:59:58;2.00;;;1.57;;
14768;SDS011;7476;49.404;11.152;2023-09-19T15:02:25;2.97;;;1.60;;
14768;SDS011;7476;49.404;11.152;2023-09-19T15:04:52;4.03;;;2.07;;
14768;SDS011;7476;49.404;11.152;2023-09-19T15:07:18;2.03;;;1.50;;
14768;SDS011;7476;49.404;11.152;2023-09-19T15:09:48;2.33;;;1.53;;
14768;SDS011;7476;49.404;11.152;2023-09-19T15:12:14;1.50;;;1.20;;
14768;SDS011;7476;49.404;11.152;2023-09-19T15:14:42;3.63;;;1.40;;
14768;SDS011;7476;49.404;11.152;2023-09-19T15:17:08;2.27;;;1.53;;
14768;SDS011;7476;49.404;11.152;2023-09-19T15:19:35;2.57;;;1.50;;
14768;SDS011;7476;49.404;11.152;2023-09-19T15:22:03;2.33;;;1.30;;